Time;durP1;ratioP1;P1;durP2;ratioP2;P2;SDS_P1;SDS_P2;PMS_P1;PMS_P2;Temp;Humidity;BMP_temperature;BMP_pressure;BME280_temperature;BME280_humidity;BME280_pressure;Samples;Min_cycle;Max_cycle;Signal;HPM_P1;HPM_P2
2022/03/25 00:00:40;;;;;;;76.25;51.15;;;6.90;99.90;;;;;;5072863;28;20041;-62
2022/03/25 00:03:06;;;;;;;72.97;50.88;;;6.80;99.90;;;;;;5072952;28;20060;-62
2022/03/25 00:05:32;;;;;;;73.85;50.67;;;6.70;99.90;;;;;;5073206;28;20462;-62
2022/03/25 00:07:58;;;;;;;71.82;50.33;;;6.70;99.90;;;;;;5072933;28;20087;-62
2022/03/25 00:10:24;;;;;;;72.60;50.15;;;6.70;99.90;;;;;;5073011;28;20452;-62
2022/03/25 00:12:50;;;;;;;66.47;47.38;;;6.70;99.90;;;;;;5073073;28;20901;-62
2022/03/25 00:15:16;;;;;;;71.85;49.55;;;6.70;99.90;;;;;;5072868;28;20044;-63
2022/03/25 00:17:42;;;;;;;72.50;50.22;;;6.70;99.90;;;;;;5072984;28;20028;-63
2022/03/25 00:20:08;;;;;;;70.05;49.10;;;6.50;99.90;;;;;;5072688;28;20052;-62
2022/03/25 00:22:35;;;;;;;73.47;50.03;;;6.50;99.90;;;;;;5072737;28;20483;-63
2022/03/25 00:25:01;;;;;;;67.72;48.15;;;6.40;99.90;;;;;;5073093;28;20040;-62
2022/03/25 00:27:26;;;;;;;75.63;48.15;;;6.10;99.90;;;;;;5073108;28;20029;-62
2022/03/25 00:29:52;;;;;;;69.32;49.58;;;6.10;99.90;;;;;;5072496;28;20044;-62
2022/03/25 00:32:18;;;;;;;75.75;49.88;;;6.20;99.90;;;;;;5072820;28;20068;-62
2022/03/25 00:34:44;;;;;;;78.47;48.92;;;6.30;99.90;;;;;;5072800;28;20047;-62
2022/03/25 00:37:10;;;;;;;73.10;50.35;;;6.10;99.90;;;;;;5072634;28;20055;-62
2022/03/25 00:39:36;;;;;;;76.63;50.10;;;6.00;99.90;;;;;;5072452;28;20040;-62
2022/03/25 00:42:03;;;;;;;74.60;49.17;;;6.00;99.90;;;;;;5072535;28;20375;-62
2022/03/25 00:44:29;;;;;;;75.93;48.83;;;6.00;99.90;;;;;;5071086;28;20052;-62
2022/03/25 00:46:55;;;;;;;71.65;47.03;;;5.90;99.90;;;;;;5072313;28;20541;-62
2022/03/25 00:49:20;;;;;;;75.03;47.22;;;5.90;99.90;;;;;;5072554;28;20051;-62
2022/03/25 00:51:46;;;;;;;64.82;45.45;;;5.80;99.90;;;;;;5072870;28;20114;-62
2022/03/25 00:54:13;;;;;;;72.57;48.05;;;5.80;99.90;;;;;;5072550;28;20064;-62
2022/03/25 00:56:39;;;;;;;67.22;46.63;;;5.90;99.90;;;;;;5070957;28;20094;-62
2022/03/25 00:59:04;;;;;;;72.05;48.28;;;5.80;99.90;;;;;;5072091;28;20472;-62
2022/03/25 01:01:30;;;;;;;69.95;47.63;;;5.70;99.90;;;;;;5071238;28;20041;-62
2022/03/25 01:03:56;;;;;;;65.63;45.95;;;5.70;99.90;;;;;;5072906;28;20080;-62
2022/03/25 01:06:21;;;;;;;68.57;47.05;;;5.70;99.90;;;;;;5072485;28;20040;-62
2022/03/25 01:08:47;;;;;;;70.38;45.55;;;5.80;99.90;;;;;;5072274;28;20044;-62
2022/03/25 01:11:13;;;;;;;65.90;47.10;;;5.80;99.90;;;;;;5072369;28;20041;-62
2022/03/25 01:13:39;;;;;;;66.40;44.67;;;5.70;99.90;;;;;;5072489;28;20032;-62
2022/03/25 01:16:06;;;;;;;68.80;45.15;;;5.70;99.90;;;;;;5072352;28;20470;-62
2022/03/25 01:18:32;;;;;;;68.18;47.40;;;5.60;99.90;;;;;;5072206;28;20119;-62
2022/03/25 01:20:58;;;;;;;71.50;45.33;;;5.60;99.90;;;;;;5072260;28;20539;-62
2022/03/25 01:23:27;;;;;;;63.95;43.55;;;5.40;99.90;;;;;;5072151;28;20071;-62
2022/03/25 01:25:53;;;;;;;59.33;39.05;;;5.40;99.90;;;;;;5072134;28;20098;-62
2022/03/25 01:28:19;;;;;;;55.25;39.63;;;5.40;99.90;;;;;;5072120;28;20094;-62
2022/03/25 01:30:45;;;;;;;63.70;44.38;;;5.30;99.90;;;;;;5072104;28;20048;-62
2022/03/25 01:33:11;;;;;;;55.13;37.70;;;5.50;99.90;;;;;;5072496;28;20040;-62
2022/03/25 01:35:37;;;;;;;64.93;43.42;;;5.40;99.90;;;;;;5070697;28;20084;-62
2022/03/25 01:38:03;;;;;;;62.22;43.38;;;5.40;99.90;;;;;;5088182;28;20123;-62
2022/03/25 01:40:28;;;;;;;64.35;44.97;;;5.50;99.90;;;;;;5071855;28;20045;-62
2022/03/25 01:42:54;;;;;;;73.95;47.10;;;5.40;99.90;;;;;;5071974;28;20380;-62
2022/03/25 01:45:34;;;;;;;68.68;43.72;;;5.30;99.90;;;;;;5072177;28;20039;-62
2022/03/25 01:48:01;;;;;;;;;;;5.30;99.90;;;;;;5055095;28;20040;-62
2022/03/25 01:50:27;;;;;;;62.78;43.63;;;5.30;99.90;;;;;;5071826;28;19943;-62
2022/03/25 01:52:54;;;;;;;72.90;46.72;;;5.30;99.90;;;;;;5072184;28;20482;-62
2022/03/25 01:55:24;;;;;;;57.03;40.28;;;5.30;99.90;;;;;;5071883;28;20043;-62
2022/03/25 01:57:51;;;;;;;53.58;36.50;;;5.40;99.90;;;;;;5072158;28;20049;-62
2022/03/25 02:00:19;;;;;;;58.30;37.95;;;5.30;99.90;;;;;;5072173;28;20036;-62
2022/03/25 02:02:45;;;;;;;54.05;38.67;;;5.30;99.90;;;;;;5072217;28;20399;-62
2022/03/25 02:05:11;;;;;;;58.20;39.85;;;5.30;99.90;;;;;;5072418;28;20517;-62
2022/03/25 02:07:37;;;;;;;47.20;34.75;;;5.20;99.90;;;;;;5072140;28;20040;-62
2022/03/25 02:10:04;;;;;;;51.17;35.55;;;5.10;99.90;;;;;;5071809;28;20048;-62
2022/03/25 02:12:32;;;;;;;53.63;37.58;;;5.00;99.90;;;;;;5075064;28;20546;-62
2022/03/25 02:14:57;;;;;;;58.00;37.70;;;4.90;99.90;;;;;;5075789;28;20075;-62
2022/03/25 02:17:23;;;;;;;49.05;34.97;;;5.00;99.90;;;;;;5075372;28;20079;-62
2022/03/25 02:19:49;;;;;;;56.90;36.75;;;4.90;99.90;;;;;;5075367;28;20427;-62
2022/03/25 02:22:16;;;;;;;42.50;31.60;;;4.90;99.90;;;;;;5075444;28;20119;-62
2022/03/25 02:24:41;;;;;;;45.05;31.33;;;4.80;99.90;;;;;;5075285;28;20509;-62
2022/03/25 02:27:09;;;;;;;47.03;31.17;;;4.70;99.90;;;;;;5075550;28;20028;-62
2022/03/25 02:29:34;;;;;;;54.72;35.10;;;4.60;99.90;;;;;;5075477;28;20395;-62
2022/03/25 02:32:00;;;;;;;48.30;35.00;;;4.70;99.90;;;;;;5075291;28;20049;-62
2022/03/25 02:34:26;;;;;;;45.75;31.08;;;4.50;99.90;;;;;;5075406;28;20047;-62
2022/03/25 02:36:51;;;;;;;40.05;29.20;;;4.40;99.90;;;;;;5075520;28;20039;-62
2022/03/25 02:39:18;;;;;;;34.65;26.45;;;4.60;99.90;;;;;;5075301;28;20068;-62
2022/03/25 02:41:44;;;;;;;53.03;31.23;;;4.60;99.90;;;;;;5074986;28;20483;-62
2022/03/25 02:44:11;;;;;;;55.17;36.38;;;4.60;99.90;;;;;;5075362;28;20083;-62
2022/03/25 02:46:37;;;;;;;53.05;36.10;;;4.50;99.90;;;;;;5074975;28;20028;-62
2022/03/25 02:49:03;;;;;;;66.18;42.17;;;4.50;99.90;;;;;;5074856;28;20048;-62
2022/03/25 02:51:29;;;;;;;63.67;41.72;;;4.50;99.90;;;;;;5074727;28;20045;-62
2022/03/25 02:53:56;;;;;;;40.65;29.50;;;4.60;99.90;;;;;;5075019;28;20041;-62
2022/03/25 02:56:24;;;;;;;32.63;25.58;;;4.50;99.90;;;;;;5073469;28;20076;-62
2022/03/25 02:58:51;;;;;;;36.55;25.38;;;4.40;99.90;;;;;;5074919;28;20051;-62
2022/03/25 03:01:17;;;;;;;41.45;28.90;;;4.40;99.90;;;;;;5074621;28;20494;-62
2022/03/25 03:03:43;;;;;;;40.00;27.83;;;4.30;99.90;;;;;;5074932;28;20040;-62
2022/03/25 03:06:09;;;;;;;41.33;30.40;;;4.20;99.90;;;;;;5074256;28;20045;-62
2022/03/25 03:08:37;;;;;;;42.65;29.25;;;4.20;99.90;;;;;;5073412;28;20033;-62
2022/03/25 03:11:03;;;;;;;48.33;34.35;;;4.10;99.90;;;;;;5074800;28;20089;-62
2022/03/25 03:13:29;;;;;;;56.60;37.50;;;4.10;99.90;;;;;;5074741;28;20071;-62
2022/03/25 03:15:55;;;;;;;54.85;37.50;;;4.10;99.90;;;;;;5074646;28;20487;-62
2022/03/25 03:18:20;;;;;;;60.88;39.17;;;4.10;99.90;;;;;;5074617;28;20052;-62
2022/03/25 03:20:46;;;;;;;52.38;35.83;;;4.10;99.90;;;;;;5074191;28;20051;-62
2022/03/25 03:23:13;;;;;;;58.97;37.88;;;4.20;99.90;;;;;;5074022;28;20028;-62
2022/03/25 03:25:39;;;;;;;51.42;35.63;;;4.10;99.90;;;;;;5073054;28;20091;-62
2022/03/25 03:28:05;;;;;;;48.10;34.45;;;4.00;99.90;;;;;;5074262;28;20094;-62
2022/03/25 03:30:31;;;;;;;50.42;35.65;;;4.00;99.90;;;;;;5072506;28;20049;-62
2022/03/25 03:33:04;;;;;;;49.65;33.72;;;4.00;99.90;;;;;;5074133;28;20482;-62
2022/03/25 03:35:32;;;;;;;52.20;34.30;;;4.00;99.90;;;;;;5074232;28;20054;-62
2022/03/25 03:37:58;;;;;;;46.55;33.17;;;4.00;99.90;;;;;;5074298;28;20123;-62
2022/03/25 03:40:25;;;;;;;44.17;32.75;;;4.00;99.90;;;;;;5074182;28;20044;-62
2022/03/25 03:42:51;;;;;;;50.35;35.53;;;4.10;99.90;;;;;;5074131;28;20470;-62
2022/03/25 03:45:17;;;;;;;49.28;34.25;;;4.10;99.90;;;;;;5074542;28;20449;-61
2022/03/25 03:47:44;;;;;;;50.58;34.65;;;4.10;99.90;;;;;;5073699;28;20036;-62
2022/03/25 03:50:13;;;;;;;46.08;32.53;;;3.90;99.90;;;;;;5073851;28;20502;-62
2022/03/25 03:52:40;;;;;;;49.95;35.03;;;3.90;99.90;;;;;;5073872;28;20051;-62
2022/03/25 03:55:07;;;;;;;52.55;33.97;;;4.00;99.90;;;;;;5073839;28;20545;-62
2022/03/25 03:57:35;;;;;;;51.17;35.15;;;3.90;99.90;;;;;;5073550;28;20046;-62
2022/03/25 04:00:05;;;;;;;50.00;32.70;;;3.80;99.90;;;;;;5073390;28;20042;-61
2022/03/25 04:02:31;;;;;;;50.72;34.70;;;3.90;99.90;;;;;;5074007;28;20047;-62
2022/03/25 04:04:57;;;;;;;47.55;33.38;;;3.90;99.90;;;;;;5073743;28;20115;-61
2022/03/25 04:07:23;;;;;;;51.55;35.17;;;3.90;99.90;;;;;;5073727;28;20086;-61
2022/03/25 04:09:49;;;;;;;48.72;34.25;;;3.90;99.90;;;;;;5073735;28;20051;-61
2022/03/25 04:12:14;;;;;;;50.53;34.08;;;3.90;99.90;;;;;;5073493;28;20479;-61
2022/03/25 04:14:40;;;;;;;52.92;34.63;;;3.90;99.90;;;;;;5073136;28;20550;-61
2022/03/25 04:17:06;;;;;;;49.97;34.97;;;3.90;99.90;;;;;;5073511;28;20453;-61
2022/03/25 04:19:32;;;;;;;52.65;35.28;;;4.00;99.90;;;;;;5073671;28;20482;-62
2022/03/25 04:21:58;;;;;;;52.28;34.47;;;4.00;99.90;;;;;;5073105;28;20192;-61
2022/03/25 04:24:24;;;;;;;49.38;34.95;;;3.80;99.90;;;;;;5073285;28;20382;-61
2022/03/25 04:26:49;;;;;;;50.53;33.80;;;3.80;99.90;;;;;;5072945;28;20032;-61
2022/03/25 04:29:15;;;;;;;51.85;35.17;;;3.90;99.90;;;;;;5073147;28;20111;-62
2022/03/25 04:31:41;;;;;;;48.92;33.50;;;3.80;99.90;;;;;;5073367;28;20043;-62
2022/03/25 04:34:07;;;;;;;49.70;34.33;;;3.80;99.90;;;;;;5072837;28;20440;-61
2022/03/25 04:36:34;;;;;;;49.05;32.22;;;3.80;99.90;;;;;;5073120;28;20044;-62
2022/03/25 04:38:59;;;;;;;47.45;32.75;;;3.80;99.90;;;;;;5073256;28;20040;-62
2022/03/25 04:41:25;;;;;;;46.47;32.60;;;3.80;99.90;;;;;;5073179;28;20510;-62
2022/03/25 04:43:51;;;;;;;48.25;31.63;;;3.80;99.90;;;;;;5073157;28;20551;-61
2022/03/25 04:46:17;;;;;;;45.00;31.38;;;3.70;99.90;;;;;;5072707;28;20047;-62
2022/03/25 04:48:43;;;;;;;43.03;30.65;;;3.70;99.90;;;;;;5072671;28;20067;-62
2022/03/25 04:51:09;;;;;;;44.97;30.42;;;3.70;99.90;;;;;;5072954;28;20040;-62
2022/03/25 04:53:35;;;;;;;40.72;28.88;;;3.60;99.90;;;;;;5072889;28;20052;-61
2022/03/25 04:56:01;;;;;;;43.08;30.08;;;3.60;99.90;;;;;;5072672;28;20048;-62
2022/03/25 04:58:28;;;;;;;41.28;29.92;;;3.50;99.90;;;;;;5072777;28;20058;-62
2022/03/25 05:00:54;;;;;;;46.35;32.40;;;3.50;99.90;;;;;;5072714;28;20040;-62
2022/03/25 05:03:19;;;;;;;42.00;29.45;;;3.50;99.90;;;;;;5072866;28;20045;-61
2022/03/25 05:05:46;;;;;;;44.72;29.58;;;3.50;99.90;;;;;;5071497;28;20467;-62
2022/03/25 05:08:12;;;;;;;45.47;31.25;;;3.50;99.90;;;;;;5072844;28;20098;-61
2022/03/25 05:10:38;;;;;;;46.45;31.30;;;3.40;99.90;;;;;;5072732;28;20429;-62
2022/03/25 05:13:04;;;;;;;46.78;31.48;;;3.50;99.90;;;;;;5072276;28;20044;-62
2022/03/25 05:15:30;;;;;;;46.28;31.30;;;3.40;99.90;;;;;;5072681;28;20041;-62
2022/03/25 05:17:56;;;;;;;50.53;33.03;;;3.40;99.90;;;;;;5072602;28;20045;-61
2022/03/25 05:20:22;;;;;;;47.53;31.48;;;3.40;99.90;;;;;;5072533;28;20041;-61
2022/03/25 05:22:49;;;;;;;50.15;31.98;;;3.40;99.90;;;;;;5072405;28;20087;-62
2022/03/25 05:25:16;;;;;;;49.05;32.05;;;3.30;99.90;;;;;;5088453;28;20060;-61
2022/03/25 05:27:57;;;;;;;46.15;30.15;;;3.40;99.90;;;;;;5072789;28;20045;-62
2022/03/25 05:30:31;;;;;;;47.35;32.08;;;3.40;99.90;;;;;;5072333;28;20482;-61
2022/03/25 05:32:58;;;;;;;47.78;30.90;;;3.30;99.90;;;;;;5072576;28;20109;-61
2022/03/25 05:35:25;;;;;;;45.90;29.67;;;3.30;99.90;;;;;;5072558;28;20070;-62
2022/03/25 05:37:52;;;;;;;47.03;31.08;;;3.30;99.90;;;;;;5072567;28;20392;-61
2022/03/25 05:40:20;;;;;;;42.28;29.42;;;3.30;99.90;;;;;;5072633;28;20047;-61
2022/03/25 05:42:46;;;;;;;38.70;26.45;;;3.30;99.90;;;;;;5072821;28;20037;-61
2022/03/25 05:45:12;;;;;;;47.40;30.92;;;3.30;99.90;;;;;;5072126;28;20493;-62
2022/03/25 05:47:39;;;;;;;44.15;30.67;;;3.40;99.90;;;;;;5075811;28;20068;-61
2022/03/25 05:50:06;;;;;;;46.42;31.52;;;3.30;99.90;;;;;;5076214;28;20059;-61
2022/03/25 05:52:32;;;;;;;46.17;30.58;;;3.30;99.90;;;;;;5076210;28;20036;-62
2022/03/25 05:54:57;;;;;;;45.60;29.73;;;3.30;99.90;;;;;;5076401;28;20048;-61
2022/03/25 05:57:23;;;;;;;50.70;30.65;;;3.30;99.90;;;;;;5076278;28;20040;-61
2022/03/25 05:59:49;;;;;;;48.65;31.80;;;3.40;99.90;;;;;;5075852;28;20048;-61
2022/03/25 06:02:15;;;;;;;47.67;32.33;;;3.40;99.90;;;;;;5074845;28;20037;-61
2022/03/25 06:04:41;;;;;;;51.47;34.03;;;3.50;99.90;;;;;;5076177;28;20064;-61
2022/03/25 06:07:07;;;;;;;51.20;34.40;;;3.60;99.90;;;;;;5076157;28;20040;-60
2022/03/25 06:09:33;;;;;;;55.80;34.38;;;3.70;99.90;;;;;;5076338;28;20036;-59
2022/03/25 06:11:58;;;;;;;55.95;36.80;;;3.90;99.90;;;;;;5076046;28;20047;-59
2022/03/25 06:14:27;;;;;;;56.85;35.95;;;4.00;99.90;;;;;;5075902;28;20040;-59
2022/03/25 06:16:53;;;;;;;54.17;33.78;;;4.20;99.90;;;;;;5075633;28;20501;-59
2022/03/25 06:19:19;;;;;;;59.28;37.38;;;4.40;99.90;;;;;;5075874;28;20032;-59
2022/03/25 06:21:45;;;;;;;51.83;35.67;;;4.60;99.90;;;;;;5075953;28;20044;-61
2022/03/25 06:24:11;;;;;;;54.90;36.35;;;4.90;99.90;;;;;;5075843;28;20036;-61
2022/03/25 06:26:36;;;;;;;57.25;35.97;;;5.20;99.90;;;;;;5058146;28;20041;-61
2022/03/25 06:29:03;;;;;;;50.95;35.72;;;5.40;99.90;;;;;;5075842;28;20036;-61
2022/03/25 06:31:29;;;;;;;58.00;34.97;;;5.60;99.90;;;;;;5075522;28;20072;-61
2022/03/25 06:33:54;;;;;;;48.60;33.35;;;5.80;99.90;;;;;;5075840;28;20071;-62
2022/03/25 06:36:20;;;;;;;50.65;34.72;;;5.90;99.90;;;;;;5075810;28;20037;-61
2022/03/25 06:38:46;;;;;;;53.63;34.03;;;6.10;99.90;;;;;;5075187;28;20036;-61
2022/03/25 06:41:12;;;;;;;48.40;34.35;;;6.30;99.90;;;;;;5075628;28;20037;-61
2022/03/25 06:43:38;;;;;;;47.97;33.67;;;6.50;99.90;;;;;;5075074;28;20036;-61
2022/03/25 06:46:04;;;;;;;49.47;34.75;;;6.60;99.90;;;;;;5075194;28;20028;-60
2022/03/25 06:48:33;;;;;;;48.35;32.80;;;6.80;99.90;;;;;;5074764;28;20048;-60
2022/03/25 06:51:00;;;;;;;48.17;33.40;;;6.90;99.90;;;;;;5075213;28;20048;-60
2022/03/25 06:53:27;;;;;;;48.17;32.30;;;7.10;99.90;;;;;;5074975;28;20044;-59
2022/03/25 06:55:53;;;;;;;45.70;33.40;;;7.20;99.90;;;;;;5075267;28;20036;-60
2022/03/25 06:58:19;;;;;;;45.25;31.58;;;7.40;99.90;;;;;;5074288;28;20483;-61
2022/03/25 07:00:45;;;;;;;46.80;31.88;;;7.50;99.90;;;;;;5074517;28;20082;-61
2022/03/25 07:03:11;;;;;;;46.13;32.03;;;7.80;99.90;;;;;;5074834;28;20098;-60
2022/03/25 07:05:37;;;;;;;47.15;31.75;;;8.00;99.90;;;;;;5074761;28;20066;-61
2022/03/25 07:08:03;;;;;;;44.17;31.88;;;8.20;99.90;;;;;;5074670;28;20457;-61
2022/03/25 07:10:29;;;;;;;39.90;29.58;;;8.40;99.90;;;;;;5074142;28;20517;-61
2022/03/25 07:12:55;;;;;;;43.65;30.45;;;8.80;99.90;;;;;;5089717;28;20040;-62
2022/03/25 07:15:22;;;;;;;49.55;31.45;;;9.10;99.90;;;;;;5074330;28;20095;-62
2022/03/25 07:17:49;;;;;;;41.10;29.85;;;9.40;99.90;;;;;;5074208;28;20123;-61
2022/03/25 07:20:16;;;;;;;39.85;30.15;;;9.70;99.90;;;;;;5073798;28;20044;-62
2022/03/25 07:22:47;;;;;;;42.83;30.50;;;9.90;99.90;;;;;;5074051;28;20143;-62
2022/03/25 07:25:14;;;;;;;42.25;29.00;;;10.20;99.90;;;;;;5074360;28;20450;-63
2022/03/25 07:27:40;;;;;;;41.72;28.08;;;10.60;99.90;;;;;;5073674;28;20068;-62
2022/03/25 07:30:07;;;;;;;39.00;27.45;;;10.70;99.90;;;;;;5073730;28;20036;-60
2022/03/25 07:32:32;;;;;;;44.60;28.90;;;11.00;99.90;;;;;;5073550;28;20502;-61
2022/03/25 07:34:58;;;;;;;42.47;27.48;;;11.20;99.90;;;;;;5073395;28;20079;-61
2022/03/25 07:37:24;;;;;;;39.60;25.83;;;11.30;99.90;;;;;;5073816;28;20036;-61
2022/03/25 07:39:50;;;;;;;36.65;26.17;;;11.60;99.90;;;;;;5073648;28;20040;-61
2022/03/25 07:42:15;;;;;;;36.80;24.67;;;11.70;99.90;;;;;;5073502;28;20554;-62
2022/03/25 07:44:41;;;;;;;37.53;26.13;;;12.00;99.90;;;;;;5072106;28;20048;-62
2022/03/25 07:47:08;;;;;;;37.50;23.80;;;12.30;99.90;;;;;;5073504;28;20526;-62
2022/03/25 07:49:35;;;;;;;34.03;23.58;;;12.60;99.90;;;;;;5072959;28;20076;-61
2022/03/25 07:52:03;;;;;;;36.33;23.85;;;12.80;99.90;;;;;;5073663;28;20080;-61
2022/03/25 07:54:29;;;;;;;32.97;23.98;;;13.10;99.90;;;;;;5073918;28;20048;-62
2022/03/25 07:56:58;;;;;;;35.60;22.23;;;13.20;99.90;;;;;;5073318;28;20040;-62
2022/03/25 07:59:25;;;;;;;38.92;23.52;;;13.30;99.90;;;;;;5073586;28;20173;-61
2022/03/25 08:01:52;;;;;;;31.50;22.58;;;13.40;99.90;;;;;;5073061;28;20098;-61
2022/03/25 08:04:18;;;;;;;33.75;22.13;;;13.70;99.90;;;;;;5073185;28;20097;-61
2022/03/25 08:06:44;;;;;;;32.30;21.83;;;14.00;99.90;;;;;;5073567;28;20197;-61
2022/03/25 08:09:11;;;;;;;33.63;20.17;;;14.10;99.90;;;;;;5072773;28;20836;-61
2022/03/25 08:11:37;;;;;;;32.88;20.77;;;14.10;99.90;;;;;;5073262;28;20474;-61
2022/03/25 08:14:02;;;;;;;31.00;20.45;;;14.10;99.90;;;;;;5073347;28;20040;-62
2022/03/25 08:16:28;;;;;;;29.42;20.23;;;14.40;99.90;;;;;;5073122;28;20055;-62
2022/03/25 08:18:53;;;;;;;31.67;22.52;;;14.60;99.90;;;;;;5071819;28;20032;-62
2022/03/25 08:21:19;;;;;;;33.35;19.48;;;14.80;99.90;;;;;;5072741;28;20471;-62
2022/03/25 08:29:24;;;;;;;33.17;20.10;;;15.10;99.90;;;;;;5010608;28;20042;-62
2022/03/25 08:31:49;;;;;;;28.80;19.40;;;15.00;99.90;;;;;;5010508;28;20057;-62
2022/03/25 08:34:16;;;;;;;34.03;19.23;;;15.20;99.90;;;;;;5010394;28;20045;-62
2022/03/25 08:36:44;;;;;;;29.35;19.83;;;15.30;99.90;;;;;;5010375;28;20061;-63
2022/03/25 08:39:13;;;;;;;29.35;20.50;;;15.40;99.90;;;;;;5009949;28;20053;-61
2022/03/25 08:41:41;;;;;;;33.03;21.55;;;15.50;99.90;;;;;;4994155;28;20046;-63
2022/03/25 08:44:07;;;;;;;26.65;18.70;;;15.60;99.90;;;;;;5010181;28;20052;-61
2022/03/25 08:46:34;;;;;;;31.08;19.65;;;15.90;99.90;;;;;;5010230;28;20042;-61
2022/03/25 08:49:01;;;;;;;25.42;19.23;;;16.10;99.90;;;;;;5009971;28;20053;-62
2022/03/25 08:51:28;;;;;;;25.35;18.02;;;16.40;99.80;;;;;;5010124;28;20042;-62
2022/03/25 08:53:54;;;;;;;28.15;19.17;;;16.40;99.40;;;;;;5010121;28;20050;-61
2022/03/25 08:56:20;;;;;;;25.00;17.65;;;16.60;98.70;;;;;;5009980;28;20056;-61
2022/03/25 08:58:46;;;;;;;26.25;18.00;;;16.70;97.50;;;;;;5010080;28;20049;-59
2022/03/25 09:01:12;;;;;;;29.30;16.98;;;16.70;97.20;;;;;;5009929;28;20050;-60
2022/03/25 09:03:38;;;;;;;30.52;17.42;;;16.70;97.70;;;;;;5056001;28;20041;-59
2022/03/25 09:06:03;;;;;;;27.52;16.48;;;16.80;95.50;;;;;;5071818;28;20033;-59
2022/03/25 09:08:29;;;;;;;24.20;16.30;;;17.00;95.30;;;;;;5071736;28;20471;-59
2022/03/25 09:10:55;;;;;;;27.13;16.08;;;17.20;96.40;;;;;;5071698;28;20082;-59
2022/03/25 09:13:21;;;;;;;28.20;16.95;;;17.40;95.10;;;;;;5071876;28;20044;-60
2022/03/25 09:15:47;;;;;;;26.52;16.70;;;17.60;94.60;;;;;;5071611;28;20040;-59
2022/03/25 09:18:12;;;;;;;33.67;17.33;;;17.80;95.40;;;;;;5071804;28;20055;-58
2022/03/25 09:20:39;;;;;;;26.55;17.42;;;18.10;94.40;;;;;;5071167;28;20105;-59
2022/03/25 09:23:05;;;;;;;23.15;17.02;;;18.20;93.50;;;;;;5071564;28;20324;-59
2022/03/25 09:25:30;;;;;;;24.60;15.73;;;18.30;93.70;;;;;;5071676;28;20064;-59
2022/03/25 09:27:56;;;;;;;31.38;17.13;;;18.40;93.90;;;;;;5071986;28;20099;-59
2022/03/25 09:30:22;;;;;;;23.60;15.82;;;18.60;92.80;;;;;;5070040;28;20053;-59
2022/03/25 09:32:47;;;;;;;24.20;16.15;;;18.60;92.40;;;;;;5071509;28;20050;-59
2022/03/25 09:35:14;;;;;;;24.35;15.20;;;18.70;92.30;;;;;;5071526;28;20047;-59
2022/03/25 09:37:49;;;;;;;30.05;15.55;;;18.80;91.10;;;;;;5071354;28;20040;-60
2022/03/25 09:40:25;;;;;;;26.27;15.32;;;18.60;90.90;;;;;;5071374;28;20102;-59
2022/03/25 09:42:55;;;;;;;27.05;16.30;;;18.80;91.10;;;;;;5071412;28;20036;-59
2022/03/25 09:45:23;;;;;;;24.95;15.50;;;18.70;91.20;;;;;;5071498;28;20036;-59
2022/03/25 09:47:49;;;;;;;25.05;16.65;;;18.50;90.20;;;;;;5071311;28;20040;-59
2022/03/25 09:50:21;;;;;;;24.77;16.35;;;18.50;90.90;;;;;;5071115;28;20173;-59
2022/03/25 09:52:48;;;;;;;24.38;16.42;;;18.50;90.70;;;;;;5071860;28;20051;-60
2022/03/25 09:55:15;;;;;;;25.58;17.65;;;18.40;91.10;;;;;;5071756;28;20381;-61
2022/03/25 09:57:41;;;;;;;25.30;16.02;;;18.30;90.90;;;;;;5071651;28;20045;-59
2022/03/25 10:00:11;;;;;;;25.45;15.68;;;18.30;91.40;;;;;;5071395;28;20040;-59
2022/03/25 10:02:37;;;;;;;27.83;16.35;;;18.20;90.70;;;;;;5071176;28;20036;-60
2022/03/25 10:05:18;;;;;;;23.17;17.35;;;18.20;90.00;;;;;;5071519;28;20182;-60
2022/03/25 10:07:57;;;;;;;23.52;17.63;;;18.30;91.50;;;;;;5071187;28;20097;-59
2022/03/25 10:10:25;;;;;;;26.85;16.75;;;18.40;90.50;;;;;;5071462;28;20146;-59
2022/03/25 10:13:02;;;;;;;24.00;17.43;;;18.40;91.40;;;;;;5071154;28;20491;-60
2022/03/25 10:15:31;;;;;;;29.70;17.52;;;18.40;91.20;;;;;;5071287;28;20359;-60
2022/03/25 10:18:04;;;;;;;28.85;18.83;;;18.60;91.50;;;;;;5071206;28;20039;-61
2022/03/25 10:20:32;;;;;;;30.45;21.55;;;18.70;91.30;;;;;;5070795;28;20033;-60
2022/03/25 10:23:03;;;;;;;29.63;18.90;;;18.60;92.10;;;;;;5070935;28;20040;-60
2022/03/25 10:25:53;;;;;;;30.45;20.23;;;18.70;91.60;;;;;;5071126;28;20040;-60
2022/03/25 10:28:27;;;;;;;;;;;18.80;90.70;;;;;;5071703;28;20122;-61
2022/03/25 10:31:00;;;;;;;32.20;21.77;;;18.80;90.00;;;;;;5069681;28;19916;-61
2022/03/25 10:33:34;;;;;;;30.38;21.13;;;18.80;90.00;;;;;;5073810;28;20047;-61
2022/03/25 10:36:09;;;;;;;27.08;20.10;;;18.80;90.30;;;;;;5074464;28;20055;-61
2022/03/25 10:38:53;;;;;;;31.90;20.88;;;19.00;90.60;;;;;;5074385;28;20167;-60
2022/03/25 10:41:24;;;;;;;31.33;20.63;;;19.30;89.80;;;;;;5074453;28;20037;-60
2022/03/25 10:43:52;;;;;;;34.92;21.20;;;19.30;89.70;;;;;;5074285;28;20138;-60
2022/03/25 10:46:36;;;;;;;29.83;20.95;;;19.20;89.10;;;;;;5074285;28;20079;-61
2022/03/25 10:49:05;;;;;;;36.50;21.88;;;19.00;87.10;;;;;;5074313;28;20051;-60
2022/03/25 10:51:33;;;;;;;33.78;22.50;;;19.10;88.60;;;;;;5072988;28;20048;-60
2022/03/25 10:54:08;;;;;;;32.42;20.85;;;19.00;86.70;;;;;;5074237;28;20155;-60
2022/03/25 10:56:52;;;;;;;37.50;22.23;;;19.20;89.10;;;;;;5074152;28;20043;-60
2022/03/25 10:59:30;;;;;;;33.22;19.63;;;18.90;85.70;;;;;;5074311;28;20048;-61
2022/03/25 11:01:58;;;;;;;34.17;20.63;;;18.90;87.50;;;;;;5073962;28;20098;-60
2022/03/25 11:04:25;;;;;;;31.17;19.88;;;18.90;89.10;;;;;;5089862;28;20415;-61
2022/03/25 11:06:51;;;;;;;35.70;21.95;;;19.10;89.90;;;;;;5072568;28;20478;-61
2022/03/25 11:09:17;;;;;;;29.45;21.40;;;19.20;90.10;;;;;;5086403;28;20046;-61
2022/03/25 11:11:48;;;;;;;31.08;20.85;;;19.30;89.20;;;;;;5094219;28;20374;-62
2022/03/25 11:14:14;;;;;;;33.13;20.67;;;19.40;89.60;;;;;;5093908;28;20485;-61
2022/03/25 11:16:46;;;;;;;31.67;21.30;;;19.30;89.80;;;;;;5076586;28;20051;-61
2022/03/25 11:19:12;;;;;;;36.28;21.20;;;19.50;86.80;;;;;;5074835;28;20036;-61
2022/03/25 11:21:44;;;;;;;33.67;22.67;;;19.60;89.00;;;;;;5086957;28;20044;-61
2022/03/25 11:24:55;;;;;;;38.83;22.83;;;19.80;86.50;;;;;;5094079;28;20085;-61
2022/03/25 11:27:54;;;;;;;31.40;21.80;;;19.60;88.30;;;;;;5089786;28;20044;-61
2022/03/25 11:30:20;;;;;;;35.47;22.65;;;19.60;86.30;;;;;;5098194;28;20043;-63
2022/03/25 11:33:15;;;;;;;32.70;21.20;;;20.10;87.60;;;;;;5093916;28;20036;-61
2022/03/25 11:35:42;;;;;;;35.90;21.75;;;19.90;86.00;;;;;;5011840;28;20057;-61
2022/03/25 11:38:11;;;;;;;29.42;20.20;;;20.20;86.10;;;;;;5011855;28;20978;-62
2022/03/25 11:40:39;;;;;;;28.52;19.35;;;20.10;85.10;;;;;;4994819;28;20054;-61
2022/03/25 11:43:18;;;;;;;29.75;20.15;;;20.40;86.50;;;;;;5011520;28;20042;-61
2022/03/25 11:45:45;;;;;;;31.37;19.87;;;20.40;83.60;;;;;;5018429;28;20045;-62
2022/03/25 11:48:11;;;;;;;33.28;20.02;;;20.80;87.20;;;;;;5015887;28;20412;-60
2022/03/25 11:50:40;;;;;;;33.83;18.67;;;20.70;86.70;;;;;;5011225;28;20054;-62
2022/03/25 11:53:12;;;;;;;25.92;16.85;;;20.50;85.10;;;;;;5015830;28;20037;-62
2022/03/25 11:56:09;;;;;;;26.77;16.77;;;20.50;84.70;;;;;;5031054;28;20045;-61
2022/03/25 11:58:57;;;;;;;24.88;16.73;;;20.70;85.60;;;;;;5014486;28;20054;-61
2022/03/25 12:01:24;;;;;;;23.02;15.48;;;20.70;85.70;;;;;;5030926;28;20415;-62
2022/03/25 12:03:52;;;;;;;25.60;16.02;;;20.80;83.20;;;;;;5016496;28;20104;-63
2022/03/25 12:06:19;;;;;;;29.60;15.00;;;20.70;82.90;;;;;;5015310;28;20107;-61
2022/03/25 12:09:08;;;;;;;22.92;15.43;;;20.60;83.20;;;;;;5011742;28;20294;-61
2022/03/25 12:11:56;;;;;;;25.08;15.13;;;20.80;80.40;;;;;;5052383;28;20052;-60
2022/03/25 12:14:32;;;;;;;23.00;14.57;;;20.60;80.20;;;;;;5028512;28;20056;-61
2022/03/25 12:16:57;;;;;;;29.08;14.63;;;20.40;79.30;;;;;;5028574;28;20404;-60
2022/03/25 12:19:44;;;;;;;21.80;14.43;;;20.30;78.20;;;;;;5030331;28;20057;-61
2022/03/25 12:22:21;;;;;;;25.63;13.82;;;20.50;81.20;;;;;;5030147;28;20172;-61
2022/03/25 12:24:58;;;;;;;23.50;13.00;;;21.00;81.70;;;;;;5030349;28;20111;-61
2022/03/25 12:27:25;;;;;;;22.35;13.50;;;21.10;81.80;;;;;;5030374;28;20053;-60
2022/03/25 12:29:54;;;;;;;21.05;12.93;;;20.90;78.10;;;;;;5030426;28;20045;-61
2022/03/25 12:32:33;;;;;;;20.65;14.98;;;20.80;77.30;;;;;;5030095;28;20049;-61
2022/03/25 12:35:16;;;;;;;22.90;14.65;;;21.00;79.60;;;;;;5030151;28;20041;-61
2022/03/25 12:38:09;;;;;;;24.10;16.80;;;20.90;77.90;;;;;;5030098;28;20053;-61
2022/03/25 12:40:36;;;;;;;24.33;15.85;;;21.20;80.80;;;;;;5030100;28;20037;-61
2022/03/25 12:43:10;;;;;;;25.08;15.48;;;20.90;77.10;;;;;;5029931;28;20073;-61